createdAt,value
2023-05-02T00:00:04.754Z,2.30
2023-05-02T00:02:52.795Z,2.40
2023-05-02T00:05:20.958Z,2.30
2023-05-02T00:07:48.754Z,2.00
2023-05-02T00:10:17.214Z,2.40
2023-05-02T00:12:44.979Z,2.60
2023-05-02T00:15:12.628Z,2.20
2023-05-02T00:17:42.338Z,2.10
2023-05-02T00:20:11.776Z,2.20
2023-05-02T00:22:39.845Z,2.50
2023-05-02T00:25:08.139Z,2.40
2023-05-02T00:27:35.844Z,2.60
2023-05-02T00:30:03.961Z,2.40
2023-05-02T00:32:31.661Z,2.30
2023-05-02T00:34:59.320Z,2.60
2023-05-02T00:37:28.467Z,2.40
2023-05-02T00:39:56.090Z,2.50
2023-05-02T00:42:23.736Z,2.40
2023-05-02T00:44:51.865Z,2.60
2023-05-02T00:47:19.525Z,2.30
2023-05-02T00:49:47.522Z,2.10
2023-05-02T00:52:15.167Z,2.50
2023-05-02T00:54:43.954Z,2.30
2023-05-02T00:57:11.660Z,2.40
2023-05-02T00:59:39.682Z,2.30
2023-05-02T01:02:26.986Z,2.30
2023-05-02T01:05:01.233Z,2.40
2023-05-02T01:07:47.637Z,2.40
2023-05-02T01:10:34.054Z,2.50
2023-05-02T01:13:12.101Z,2.60
2023-05-02T01:15:41.991Z,2.60
2023-05-02T01:18:13.441Z,2.50
2023-05-02T01:20:46.700Z,2.30
2023-05-02T01:23:31.078Z,1.90
2023-05-02T01:26:07.862Z,2.40
2023-05-02T01:28:53.367Z,2.20
2023-05-02T01:31:23.688Z,2.50
2023-05-02T01:33:53.792Z,2.60
2023-05-02T01:36:23.363Z,2.40
2023-05-02T01:38:52.096Z,2.20
2023-05-02T01:41:21.557Z,2.10
2023-05-02T01:43:50.160Z,2.40
2023-05-02T01:46:20.200Z,2.60
2023-05-02T01:48:52.069Z,2.50
2023-05-02T01:51:21.597Z,2.20
2023-05-02T01:53:50.531Z,2.40
2023-05-02T01:56:21.288Z,2.30
2023-05-02T01:58:51.123Z,2.30
2023-05-02T02:01:20.650Z,2.30
2023-05-02T02:03:48.612Z,2.00
2023-05-02T02:06:17.780Z,2.40
2023-05-02T02:08:45.486Z,2.40
2023-05-02T02:11:17.681Z,2.20
2023-05-02T02:13:50.167Z,2.30
2023-05-02T02:16:25.342Z,2.40
2023-05-02T02:18:56.452Z,2.20
2023-05-02T02:21:27.417Z,2.50
2023-05-02T02:23:59.024Z,2.30
2023-05-02T02:26:26.661Z,2.30
2023-05-02T02:28:55.591Z,2.40
2023-05-02T02:31:25.597Z,2.40
2023-05-02T02:33:53.318Z,2.40
2023-05-02T02:36:39.598Z,2.50
2023-05-02T02:39:16.438Z,2.50
2023-05-02T02:41:55.766Z,2.30
2023-05-02T02:44:40.272Z,2.60
2023-05-02T02:47:47.228Z,2.50
2023-05-02T02:50:27.099Z,2.20
2023-05-02T02:53:05.473Z,2.50
2023-05-02T02:55:57.954Z,2.60
2023-05-02T02:58:46.471Z,2.70
2023-05-02T03:01:21.017Z,2.70
2023-05-02T03:03:51.347Z,2.30
2023-05-02T03:06:21.193Z,2.30
2023-05-02T03:08:49.124Z,2.40
2023-05-02T03:11:18.436Z,2.40
2023-05-02T03:13:46.403Z,2.40
2023-05-02T03:16:28.634Z,2.40
2023-05-02T03:18:56.699Z,2.40
2023-05-02T03:21:24.639Z,2.60
2023-05-02T03:23:53.532Z,2.40
2023-05-02T03:26:21.331Z,2.60
2023-05-02T03:28:50.301Z,2.50
2023-05-02T03:31:19.555Z,2.40
2023-05-02T03:33:48.411Z,2.50
2023-05-02T03:36:16.471Z,2.40
2023-05-02T03:38:44.366Z,2.40
2023-05-02T03:41:12.610Z,2.40
2023-05-02T03:43:41.320Z,2.50
2023-05-02T03:46:11.584Z,2.60
2023-05-02T03:48:40.129Z,2.20
2023-05-02T03:51:09.509Z,2.40
2023-05-02T03:53:39.405Z,2.50
2023-05-02T03:56:08.543Z,2.50
2023-05-02T03:58:42.651Z,2.60
2023-05-02T04:01:15.560Z,2.50
2023-05-02T04:03:44.738Z,2.40
2023-05-02T04:06:13.966Z,2.60
2023-05-02T04:08:43.876Z,2.60
2023-05-02T04:11:11.758Z,2.50
2023-05-02T04:13:39.575Z,2.40
2023-05-02T04:16:07.369Z,2.30
2023-05-02T04:18:36.665Z,2.10
2023-05-02T04:21:09.234Z,2.40
2023-05-02T04:23:37.670Z,2.50
2023-05-02T04:26:06.599Z,2.50
2023-05-02T04:28:40.593Z,2.10
2023-05-02T04:31:09.786Z,2.10
2023-05-02T04:33:38.821Z,2.10
2023-05-02T04:36:10.141Z,2.40
2023-05-02T04:38:38.692Z,2.40
2023-05-02T04:41:09.281Z,2.30
2023-05-02T04:43:42.820Z,2.10
2023-05-02T04:46:11.383Z,2.30
2023-05-02T04:48:42.031Z,2.20
2023-05-02T04:51:10.696Z,2.30
2023-05-02T04:53:38.689Z,2.10
2023-05-02T04:56:07.032Z,2.30
2023-05-02T04:58:37.075Z,2.30
2023-05-02T05:01:08.667Z,2.30
2023-05-02T05:03:37.448Z,2.10
2023-05-02T05:06:06.763Z,2.40
2023-05-02T05:08:34.890Z,2.20
2023-05-02T05:11:05.176Z,2.10
2023-05-02T05:13:34.205Z,2.10
2023-05-02T05:16:02.857Z,2.20
2023-05-02T05:18:40.170Z,2.20
2023-05-02T05:21:10.512Z,2.30
2023-05-02T05:23:38.588Z,2.00
2023-05-02T05:26:11.914Z,2.20
2023-05-02T05:28:41.783Z,2.20
2023-05-02T05:31:12.081Z,2.20
2023-05-02T05:33:40.912Z,2.00
2023-05-02T05:36:12.694Z,2.10
2023-05-02T05:38:40.363Z,2.00
2023-05-02T05:41:11.133Z,1.80
2023-05-02T05:43:42.600Z,1.90
2023-05-02T05:46:10.600Z,1.80
2023-05-02T05:48:39.291Z,1.80
2023-05-02T05:51:07.653Z,1.90
2023-05-02T05:53:35.607Z,1.80
2023-05-02T05:56:09.655Z,1.90
2023-05-02T05:58:38.825Z,1.70
2023-05-02T06:01:08.295Z,1.90
2023-05-02T06:03:36.752Z,2.10
2023-05-02T06:06:05.446Z,1.80
2023-05-02T06:08:33.227Z,1.80
2023-05-02T06:11:00.911Z,1.50
2023-05-02T06:13:28.539Z,1.60
2023-05-02T06:16:01.548Z,1.70
2023-05-02T06:18:31.408Z,1.80
2023-05-02T06:21:05.049Z,2.00
2023-05-02T06:26:02.212Z,1.80
2023-05-02T06:28:32.203Z,1.70
2023-05-02T06:31:06.405Z,1.50
2023-05-02T06:33:35.437Z,1.80
2023-05-02T06:36:04.193Z,1.70
2023-05-02T06:38:31.991Z,1.80
2023-05-02T06:40:59.622Z,1.90
2023-05-02T06:43:27.324Z,1.60
2023-05-02T06:45:56.299Z,1.50
2023-05-02T06:48:24.454Z,1.60
2023-05-02T06:50:53.947Z,1.70
2023-05-02T06:53:21.637Z,1.60
2023-05-02T06:55:50.283Z,1.70
2023-05-02T06:58:17.956Z,1.80
2023-05-02T07:00:45.708Z,1.50
2023-05-02T07:03:13.669Z,1.70
2023-05-02T07:05:41.449Z,1.70
2023-05-02T07:08:10.215Z,1.50
2023-05-02T07:10:37.948Z,1.60
2023-05-02T07:13:05.691Z,1.80
2023-05-02T07:15:33.379Z,1.40
2023-05-02T07:18:01.322Z,1.70
2023-05-02T07:20:28.946Z,1.70
2023-05-02T07:22:56.636Z,1.70
2023-05-02T07:25:24.311Z,1.70
2023-05-02T07:27:51.924Z,1.80
2023-05-02T07:30:19.585Z,1.70
2023-05-02T07:32:47.221Z,1.70
2023-05-02T07:35:14.932Z,1.60
2023-05-02T07:37:42.813Z,1.70
2023-05-02T07:40:10.601Z,1.70
2023-05-02T07:42:38.336Z,1.60
2023-05-02T07:45:07.051Z,1.80
2023-05-02T07:47:34.954Z,1.70
2023-05-02T07:50:06.343Z,1.50
2023-05-02T07:52:34.029Z,1.70
2023-05-02T07:55:01.695Z,1.70
2023-05-02T07:57:29.339Z,1.50
2023-05-02T07:59:57.392Z,1.60
2023-05-02T08:02:26.134Z,1.70
2023-05-02T08:04:54.030Z,1.80
2023-05-02T08:07:21.767Z,1.70
2023-05-02T08:09:49.417Z,1.60
2023-05-02T08:12:17.017Z,1.50
2023-05-02T08:14:44.630Z,1.70
2023-05-02T08:17:12.600Z,1.70
2023-05-02T08:19:40.368Z,1.60
2023-05-02T08:22:07.970Z,1.80
2023-05-02T08:24:35.745Z,1.80
2023-05-02T08:27:03.716Z,1.60
2023-05-02T08:29:31.523Z,1.70
2023-05-02T08:31:59.267Z,1.60
2023-05-02T08:34:27.027Z,1.70
2023-05-02T08:36:56.868Z,1.50
2023-05-02T08:39:26.047Z,1.70
2023-05-02T08:41:53.775Z,1.70
2023-05-02T08:44:21.622Z,1.80
2023-05-02T08:46:50.734Z,1.50
2023-05-02T08:49:20.700Z,1.80
2023-05-02T08:51:51.478Z,1.70
2023-05-02T08:54:21.195Z,1.60
2023-05-02T08:56:49.337Z,1.70
2023-05-02T08:59:16.947Z,1.70
2023-05-02T09:01:49.264Z,1.70
2023-05-02T09:04:23.812Z,1.80
2023-05-02T09:06:51.815Z,1.70
2023-05-02T09:09:19.643Z,1.70
2023-05-02T09:11:49.122Z,1.70
2023-05-02T09:14:17.391Z,1.60
2023-05-02T09:16:45.467Z,1.70
2023-05-02T09:19:24.914Z,1.70
2023-05-02T09:21:52.883Z,1.80
2023-05-02T09:24:22.199Z,1.50
2023-05-02T09:27:06.255Z,1.90
2023-05-02T09:29:38.803Z,1.70
2023-05-02T09:32:07.158Z,1.60
2023-05-02T09:34:37.107Z,1.60
2023-05-02T09:37:05.509Z,1.70
2023-05-02T09:39:33.154Z,1.70
2023-05-02T09:42:01.340Z,1.70
2023-05-02T09:44:37.285Z,1.60
2023-05-02T09:47:06.601Z,1.80
2023-05-02T09:49:50.258Z,1.60
2023-05-02T09:52:21.628Z,1.70
2023-05-02T09:54:53.327Z,1.50
2023-05-02T09:57:21.818Z,1.60
2023-05-02T09:59:57.674Z,1.70
2023-05-02T10:02:26.269Z,1.40
2023-05-02T10:04:57.076Z,1.50
2023-05-02T10:07:26.443Z,1.30
2023-05-02T10:09:58.377Z,1.80
2023-05-02T10:12:28.906Z,1.70
2023-05-02T10:15:03.378Z,1.60
2023-05-02T10:17:34.026Z,1.60
2023-05-02T10:20:06.971Z,1.60
2023-05-02T10:22:36.938Z,1.50
2023-05-02T10:25:05.570Z,1.70
2023-05-02T10:27:33.705Z,1.50
2023-05-02T10:30:04.276Z,1.50
2023-05-02T10:32:37.060Z,1.70
2023-05-02T10:35:06.490Z,1.50
2023-05-02T10:37:37.010Z,1.50
2023-05-02T10:40:06.307Z,1.50
2023-05-02T10:42:39.147Z,1.40
2023-05-02T10:45:30.247Z,1.60
2023-05-02T10:48:29.894Z,1.50
2023-05-02T10:51:01.151Z,1.40
2023-05-02T10:53:29.985Z,1.50
2023-05-02T10:56:18.749Z,1.30
2023-05-02T10:58:49.001Z,1.40
2023-05-02T11:01:37.582Z,1.60
2023-05-02T11:04:06.270Z,1.10
2023-05-02T11:06:36.825Z,1.20
2023-05-02T11:09:24.069Z,1.20
2023-05-02T11:11:55.476Z,1.50
2023-05-02T11:14:26.213Z,1.30
2023-05-02T11:17:10.039Z,1.20
2023-05-02T11:19:37.715Z,1.20
2023-05-02T11:22:23.799Z,1.30
2023-05-02T11:24:51.445Z,1.40
2023-05-02T11:27:41.441Z,1.10
2023-05-02T11:30:10.856Z,1.10
2023-05-02T11:32:44.578Z,1.20
2023-05-02T11:35:20.921Z,1.70
2023-05-02T11:37:56.059Z,1.30
2023-05-02T11:40:26.062Z,1.30
2023-05-02T11:42:54.828Z,1.10
2023-05-02T11:45:32.310Z,1.10
2023-05-02T11:48:00.261Z,1.00
2023-05-02T11:50:30.171Z,1.10
2023-05-02T11:52:58.532Z,1.20
2023-05-02T11:55:27.092Z,1.30
2023-05-02T11:57:55.722Z,1.00
2023-05-02T12:00:28.152Z,1.20
2023-05-02T12:02:55.810Z,1.10
2023-05-02T12:05:30.357Z,1.20
2023-05-02T12:07:58.489Z,1.10
2023-05-02T12:10:37.565Z,1.20
2023-05-02T12:13:06.528Z,1.10
2023-05-02T12:15:36.355Z,1.10
2023-05-02T12:18:04.471Z,1.20
2023-05-02T12:20:32.371Z,1.10
2023-05-02T12:23:00.533Z,1.30
2023-05-02T12:25:29.291Z,1.00
2023-05-02T12:28:01.106Z,1.00
2023-05-02T12:30:30.162Z,1.10
2023-05-02T12:32:59.318Z,1.00
2023-05-02T12:35:28.524Z,1.00
2023-05-02T12:38:09.284Z,1.10
2023-05-02T12:40:37.120Z,1.30
2023-05-02T12:43:07.402Z,1.00
2023-05-02T12:45:35.240Z,1.10
2023-05-02T12:48:20.353Z,1.20
2023-05-02T12:50:48.718Z,1.00
2023-05-02T12:53:16.779Z,0.90
2023-05-02T12:55:45.043Z,0.90
2023-05-02T12:58:16.799Z,0.90
2023-05-02T13:00:46.525Z,0.90
2023-05-02T13:03:15.677Z,0.80
2023-05-02T13:05:43.428Z,0.90
2023-05-02T13:08:11.113Z,0.80
2023-05-02T13:10:38.713Z,1.00
2023-05-02T13:13:07.696Z,0.90
2023-05-02T13:15:35.451Z,0.80
2023-05-02T13:18:03.231Z,1.00
2023-05-02T13:20:31.302Z,1.00
2023-05-02T13:22:59.012Z,1.00
2023-05-02T13:25:26.949Z,1.10
2023-05-02T13:27:54.597Z,1.00
2023-05-02T13:30:22.305Z,1.10
2023-05-02T13:32:50.002Z,1.00
2023-05-02T13:35:18.359Z,1.00
2023-05-02T13:37:46.370Z,1.10
2023-05-02T13:40:14.170Z,1.00
2023-05-02T13:42:42.053Z,1.10
2023-05-02T13:45:10.272Z,1.00
2023-05-02T13:47:39.393Z,1.00
2023-05-02T13:50:08.710Z,1.20
2023-05-02T13:52:36.418Z,1.00
2023-05-02T13:55:04.864Z,1.10
2023-05-02T13:57:32.540Z,1.10
2023-05-02T14:00:00.788Z,1.10
2023-05-02T14:02:28.722Z,1.10
2023-05-02T14:04:56.541Z,1.10
2023-05-02T14:07:24.229Z,1.00
2023-05-02T14:09:51.897Z,1.10
2023-05-02T14:12:19.518Z,1.20
2023-05-02T14:14:47.158Z,1.00
2023-05-02T14:17:14.878Z,1.10
2023-05-02T14:19:42.573Z,1.10
2023-05-02T14:22:10.192Z,1.10
2023-05-02T14:24:37.784Z,1.00
2023-05-02T14:27:07.534Z,0.90
2023-05-02T14:29:35.277Z,1.10
2023-05-02T14:32:03.108Z,1.10
2023-05-02T14:34:31.036Z,1.10
2023-05-02T14:36:58.663Z,1.20
2023-05-02T14:39:27.590Z,1.00
2023-05-02T14:41:55.453Z,1.00
2023-05-02T14:44:23.165Z,1.10
2023-05-02T14:46:54.707Z,1.20
2023-05-02T14:49:23.912Z,1.10
2023-05-02T14:51:52.391Z,1.30
2023-05-02T14:54:20.630Z,1.20
2023-05-02T14:56:48.367Z,1.30
2023-05-02T14:59:16.187Z,1.30
2023-05-02T15:01:44.178Z,1.30
2023-05-02T15:04:12.231Z,1.10
2023-05-02T15:06:40.485Z,1.10
2023-05-02T15:09:08.327Z,1.10
2023-05-02T15:11:35.932Z,1.40
2023-05-02T15:14:03.595Z,1.20
2023-05-02T15:16:31.801Z,1.10
2023-05-02T15:18:59.673Z,1.40
2023-05-02T15:21:27.310Z,1.40
2023-05-02T15:23:55.356Z,1.30
2023-05-02T15:26:24.214Z,1.40
2023-05-02T15:28:51.977Z,1.20
2023-05-02T15:31:19.890Z,1.20
2023-05-02T15:33:48.039Z,1.40
2023-05-02T15:36:16.028Z,1.40
2023-05-02T15:38:43.673Z,1.50
2023-05-02T15:41:11.556Z,1.40
2023-05-02T15:43:39.284Z,1.40
2023-05-02T15:46:07.018Z,1.40
2023-05-02T15:48:35.110Z,1.40
2023-05-02T15:51:05.167Z,1.40
2023-05-02T15:53:32.886Z,1.50
2023-05-02T15:56:00.748Z,1.40
2023-05-02T15:58:28.390Z,1.40
2023-05-02T16:00:56.083Z,1.30
2023-05-02T16:03:23.816Z,1.20
2023-05-02T16:05:55.961Z,1.20
2023-05-02T16:08:23.766Z,1.50
2023-05-02T16:10:51.502Z,1.50
2023-05-02T16:13:19.662Z,1.60
2023-05-02T16:15:53.527Z,1.50
2023-05-02T16:18:23.122Z,1.50
2023-05-02T16:20:52.780Z,1.60
2023-05-02T16:23:22.136Z,1.60
2023-05-02T16:25:49.804Z,1.40
2023-05-02T16:28:17.462Z,1.60
2023-05-02T16:30:45.142Z,1.50
2023-05-02T16:33:13.624Z,1.60
2023-05-02T16:35:41.390Z,1.60
2023-05-02T16:38:09.079Z,1.60
2023-05-02T16:40:36.973Z,1.60
2023-05-02T16:43:04.639Z,1.60
2023-05-02T16:45:32.481Z,1.50
2023-05-02T16:48:00.942Z,1.70
2023-05-02T16:50:29.045Z,1.60
2023-05-02T16:52:56.640Z,1.70
2023-05-02T16:55:24.410Z,1.70
2023-05-02T16:57:52.028Z,1.60
2023-05-02T17:00:19.848Z,1.70
2023-05-02T17:02:47.748Z,1.80
2023-05-02T17:05:16.574Z,1.80
2023-05-02T17:07:44.228Z,1.90
2023-05-02T17:10:13.174Z,1.60
2023-05-02T17:12:40.830Z,1.80
2023-05-02T17:15:09.016Z,1.90
2023-05-02T17:17:36.747Z,1.90
2023-05-02T17:20:06.296Z,1.70
2023-05-02T17:22:35.542Z,1.60
2023-05-02T17:25:03.773Z,1.80
2023-05-02T17:27:31.576Z,1.80
2023-05-02T17:29:59.712Z,1.70
2023-05-02T17:32:27.965Z,1.80
2023-05-02T17:34:57.622Z,2.00
2023-05-02T17:37:26.489Z,2.00
2023-05-02T17:39:54.524Z,1.80
2023-05-02T17:42:22.168Z,1.80
2023-05-02T17:44:49.853Z,1.80
2023-05-02T17:47:19.554Z,2.00
2023-05-02T17:49:49.771Z,1.80
2023-05-02T17:52:17.463Z,1.90
2023-05-02T17:54:45.595Z,1.80
2023-05-02T17:57:14.622Z,1.80
2023-05-02T17:59:42.396Z,2.00
2023-05-02T18:02:10.578Z,1.90
2023-05-02T18:04:38.305Z,2.20
2023-05-02T18:07:06.362Z,2.00
2023-05-02T18:09:34.178Z,1.80
2023-05-02T18:12:03.683Z,1.80
2023-05-02T18:14:31.400Z,2.00
2023-05-02T18:16:59.088Z,2.00
2023-05-02T18:19:26.738Z,2.10
2023-05-02T18:21:54.515Z,2.00
2023-05-02T18:24:22.143Z,2.00
2023-05-02T18:26:50.101Z,2.20
2023-05-02T18:29:18.677Z,2.00
2023-05-02T18:31:52.454Z,1.90
2023-05-02T18:34:20.227Z,2.10
2023-05-02T18:36:47.845Z,1.80
2023-05-02T18:39:16.023Z,2.00
2023-05-02T18:41:43.788Z,2.00
2023-05-02T18:44:12.093Z,2.10
2023-05-02T18:46:39.757Z,2.20
2023-05-02T18:49:09.043Z,2.10
2023-05-02T18:51:36.730Z,2.00
2023-05-02T18:54:04.482Z,1.80
2023-05-02T18:56:32.170Z,2.10
2023-05-02T18:59:00.002Z,2.00
2023-05-02T19:01:27.705Z,2.10
2023-05-02T19:03:56.252Z,2.00
2023-05-02T19:06:24.347Z,2.10
2023-05-02T19:08:52.811Z,1.70
2023-05-02T19:11:21.289Z,2.10
2023-05-02T19:13:49.011Z,1.90
2023-05-02T19:16:16.771Z,2.10
2023-05-02T19:18:44.499Z,2.00
2023-05-02T19:21:15.747Z,2.10
2023-05-02T19:23:44.615Z,2.40
2023-05-02T19:26:16.674Z,2.30
2023-05-02T19:28:45.120Z,2.00
2023-05-02T19:31:17.593Z,2.20
2023-05-02T19:33:52.818Z,2.20
2023-05-02T19:36:24.533Z,2.20
2023-05-02T19:38:53.935Z,2.20
2023-05-02T19:41:24.662Z,2.20
2023-05-02T19:43:52.774Z,2.20
2023-05-02T19:46:20.730Z,2.20
2023-05-02T19:48:48.609Z,2.30
2023-05-02T19:51:19.738Z,2.30
2023-05-02T19:53:47.376Z,2.20
2023-05-02T19:56:14.993Z,2.20
2023-05-02T19:58:42.743Z,2.20
2023-05-02T20:01:11.059Z,2.10
2023-05-02T20:03:39.047Z,2.00
2023-05-02T20:06:06.914Z,2.00
2023-05-02T20:08:34.907Z,2.30
2023-05-02T20:11:03.109Z,2.40
2023-05-02T20:13:30.795Z,2.20
2023-05-02T20:15:58.398Z,2.20
2023-05-02T20:18:26.032Z,2.20
2023-05-02T20:20:53.628Z,1.80
2023-05-02T20:23:21.253Z,2.30
2023-05-02T20:25:48.924Z,2.30
2023-05-02T20:28:16.642Z,2.30
2023-05-02T20:30:44.393Z,2.30
2023-05-02T20:33:16.163Z,2.40
2023-05-02T20:35:45.364Z,2.10
2023-05-02T20:38:13.065Z,2.10
2023-05-02T20:40:42.617Z,2.40
2023-05-02T20:43:11.733Z,2.30
2023-05-02T20:45:39.971Z,2.40
2023-05-02T20:48:07.752Z,2.40
2023-05-02T20:50:35.534Z,2.40
2023-05-02T20:53:04.455Z,2.30
2023-05-02T20:55:32.492Z,2.10
2023-05-02T20:58:00.248Z,2.40
2023-05-02T21:00:28.832Z,2.30
2023-05-02T21:02:56.610Z,2.40
2023-05-02T21:05:24.319Z,2.40
2023-05-02T21:07:51.913Z,2.50
2023-05-02T21:10:19.546Z,2.30
2023-05-02T21:12:47.146Z,2.40
2023-05-02T21:15:15.286Z,2.50
2023-05-02T21:17:42.935Z,2.30
2023-05-02T21:20:11.158Z,2.40
2023-05-02T21:22:39.021Z,2.50
2023-05-02T21:25:07.156Z,2.40
2023-05-02T21:27:34.776Z,2.50
2023-05-02T21:30:02.814Z,2.30
2023-05-02T21:32:30.795Z,2.40
2023-05-02T21:34:58.599Z,2.40
2023-05-02T21:37:26.326Z,2.50
2023-05-02T21:39:54.004Z,2.30
2023-05-02T21:42:21.696Z,2.10
2023-05-02T21:44:50.235Z,2.40
2023-05-02T21:47:18.025Z,2.50
2023-05-02T21:49:45.632Z,2.20
2023-05-02T21:52:13.253Z,2.30
2023-05-02T21:54:42.651Z,2.50
2023-05-02T21:57:10.400Z,2.00
2023-05-02T21:59:38.024Z,2.30
2023-05-02T22:02:05.688Z,2.30
2023-05-02T22:04:33.365Z,2.60
2023-05-02T22:07:01.061Z,2.40
2023-05-02T22:09:29.046Z,2.30
2023-05-02T22:11:57.825Z,2.30
2023-05-02T22:14:33.918Z,2.50
2023-05-02T22:17:12.110Z,2.30
2023-05-02T22:19:40.564Z,2.50
2023-05-02T22:22:08.407Z,2.30
2023-05-02T22:24:36.031Z,2.30
2023-05-02T22:27:03.724Z,2.40
2023-05-02T22:29:31.341Z,2.70
2023-05-02T22:31:59.030Z,2.50
2023-05-02T22:34:26.822Z,2.70
2023-05-02T22:36:54.420Z,2.50
2023-05-02T22:39:22.186Z,2.40
2023-05-02T22:41:49.802Z,2.30
2023-05-02T22:44:17.393Z,2.30
2023-05-02T22:46:45.265Z,2.20
2023-05-02T22:49:12.981Z,2.30
2023-05-02T22:51:41.406Z,2.40
2023-05-02T22:54:10.229Z,2.30
2023-05-02T22:56:37.876Z,2.00
2023-05-02T22:59:05.709Z,2.50
2023-05-02T23:01:33.500Z,2.20
2023-05-02T23:04:01.311Z,2.40
2023-05-02T23:06:29.226Z,2.30
2023-05-02T23:08:56.987Z,2.20
2023-05-02T23:11:25.899Z,2.10
2023-05-02T23:13:53.526Z,2.40
2023-05-02T23:16:21.499Z,2.30
2023-05-02T23:18:49.302Z,2.00
2023-05-02T23:21:17.074Z,2.40
2023-05-02T23:23:44.738Z,2.30
2023-05-02T23:26:12.641Z,2.20
2023-05-02T23:28:40.271Z,2.30
2023-05-02T23:31:08.858Z,2.30
2023-05-02T23:33:37.116Z,2.30
2023-05-02T23:36:07.030Z,2.20
2023-05-02T23:38:36.029Z,2.60
2023-05-02T23:41:03.826Z,2.40
2023-05-02T23:43:31.468Z,2.40
2023-05-02T23:45:59.217Z,2.50
2023-05-02T23:48:26.842Z,2.40
2023-05-02T23:50:54.691Z,2.50
2023-05-02T23:53:22.317Z,2.20
2023-05-02T23:55:49.915Z,2.30
2023-05-02T23:58:17.520Z,2.40
